Weather at Old Buckenham Airfield

Public forecast

Using degrees Celsius for public forecast. Weather courtesy of forecast.io.

Closest aviation weather report (METAR) to Old Buckenham Airfield

Closest report is Norwich Airport, 13.6 nm (25.2 km) NE.

2022/11/30 11:20 (retrieved 30 minutes ago)

EGSH 301120Z 35005KT 9999 SCT026 BKN032 08/07 Q1025 NOSIG

Closest aviation forecast (TAF) to Old Buckenham Airfield

Closest forecast is RAF Lakenheath, 18.7 nm (34.7 km) WSW.

2022/11/30 08:09 Ammendment (retrieved 4 hours ago)

AMD EGUL 300800Z 3008/0112 07006KT 8000 BR FEW001 BKN019 OVC025 QNH3022INS TEMPO 3009/3011 SCT019 BKN020 OVC025 BECMG 3011/3012 VRB06KT 9999 NSW BKN025 QNH3027INS BECMG 3020/3021 VRB06KT 9000 BR SCT025 QNH3033INS BECMG 0103/0104 VRB06KT 0800 FG BKN002 QNH3037INS BECMG 0108/0109 VRB06KT 8000 BR BKN015 QNH3040INS TX08/3016Z TN05/3008Z